createdAt,value
2019-01-27T00:00:33.070Z,63.00
2019-01-27T00:02:59.788Z,58.73
2019-01-27T00:05:26.310Z,64.90
2019-01-27T00:07:53.024Z,59.60
2019-01-27T00:10:19.597Z,59.83
2019-01-27T00:12:46.168Z,58.70
2019-01-27T00:15:12.993Z,60.83
2019-01-27T00:17:39.569Z,62.77
2019-01-27T00:20:10.234Z,62.23
2019-01-27T00:22:36.694Z,64.17
2019-01-27T00:25:05.367Z,65.30
2019-01-27T00:27:32.020Z,69.37
2019-01-27T00:29:58.606Z,67.50
2019-01-27T00:32:25.280Z,63.07
2019-01-27T00:34:51.949Z,69.63
2019-01-27T00:37:18.571Z,61.90
2019-01-27T00:39:45.232Z,60.33
2019-01-27T00:42:11.908Z,58.73
2019-01-27T00:44:38.419Z,67.17
2019-01-27T00:47:05.096Z,62.13
2019-01-27T00:49:31.912Z,64.37
2019-01-27T00:51:59.945Z,59.20
2019-01-27T00:54:26.723Z,57.03
2019-01-27T00:56:53.467Z,58.87
2019-01-27T00:59:20.335Z,53.40
2019-01-27T01:01:47.301Z,56.53
2019-01-27T01:04:13.981Z,46.30
2019-01-27T01:06:40.561Z,54.30
2019-01-27T01:09:08.981Z,46.10
2019-01-27T01:11:35.595Z,52.90
2019-01-27T01:14:02.120Z,48.93
2019-01-27T01:16:28.636Z,57.73
2019-01-27T01:18:55.163Z,51.17
2019-01-27T01:21:21.725Z,50.63
2019-01-27T01:23:48.256Z,51.30
2019-01-27T01:26:14.841Z,47.47
2019-01-27T01:28:41.365Z,50.47
2019-01-27T01:31:07.931Z,51.07
2019-01-27T01:33:34.456Z,49.57
2019-01-27T01:36:01.038Z,45.33
2019-01-27T01:38:27.564Z,45.03
2019-01-27T01:40:54.140Z,43.77
2019-01-27T01:43:20.661Z,43.30
2019-01-27T01:45:47.186Z,43.57
2019-01-27T01:48:13.747Z,40.87
2019-01-27T01:50:40.281Z,37.47
2019-01-27T01:53:06.849Z,38.77
2019-01-27T01:55:33.523Z,42.83
2019-01-27T01:58:00.064Z,40.07
2019-01-27T02:00:27.584Z,38.13
2019-01-27T02:02:54.152Z,40.90
2019-01-27T02:05:20.975Z,35.83
2019-01-27T02:07:47.546Z,36.80
2019-01-27T02:10:16.160Z,32.33
2019-01-27T02:12:43.130Z,35.07
2019-01-27T02:15:16.332Z,31.83
2019-01-27T02:17:42.889Z,35.10
2019-01-27T02:20:09.563Z,35.03
2019-01-27T02:22:36.168Z,35.13
2019-01-27T02:25:04.045Z,34.03
2019-01-27T02:27:30.563Z,33.67
2019-01-27T02:29:57.138Z,30.10
2019-01-27T02:32:23.655Z,33.17
2019-01-27T02:34:50.232Z,32.93
2019-01-27T02:37:16.761Z,33.47
2019-01-27T02:39:43.379Z,29.60
2019-01-27T02:42:09.968Z,30.67
2019-01-27T02:44:36.588Z,35.60
2019-01-27T02:47:03.239Z,31.80
2019-01-27T02:49:29.910Z,31.67
2019-01-27T02:51:56.428Z,34.57
2019-01-27T02:54:23.300Z,29.77
2019-01-27T02:56:50.132Z,33.13
2019-01-27T02:59:16.764Z,31.00
2019-01-27T03:01:43.309Z,32.10
2019-01-27T03:04:10.073Z,31.00
2019-01-27T03:06:41.512Z,30.33
2019-01-27T03:09:10.285Z,29.07
2019-01-27T03:11:49.131Z,32.63
2019-01-27T03:14:16.212Z,33.87
2019-01-27T03:16:42.889Z,32.00
2019-01-27T03:19:09.456Z,33.83
2019-01-27T03:21:35.991Z,35.57
2019-01-27T03:24:03.165Z,32.60
2019-01-27T03:26:29.748Z,32.40
2019-01-27T03:28:56.270Z,37.10
2019-01-27T03:31:22.953Z,34.80
2019-01-27T03:33:49.667Z,33.27
2019-01-27T03:36:16.239Z,35.80
2019-01-27T03:38:42.764Z,33.47
2019-01-27T03:41:09.300Z,37.20
2019-01-27T03:43:36.192Z,35.30
2019-01-27T03:46:03.653Z,33.00
2019-01-27T03:48:30.409Z,32.40
2019-01-27T03:50:56.879Z,30.17
2019-01-27T03:53:23.511Z,32.27
2019-01-27T03:55:50.196Z,30.97
2019-01-27T03:58:16.756Z,29.57
2019-01-27T04:00:43.351Z,29.33
2019-01-27T04:03:10.132Z,30.20
2019-01-27T04:05:36.770Z,29.37
2019-01-27T04:08:03.834Z,28.00
2019-01-27T04:10:30.692Z,28.37
2019-01-27T04:12:57.448Z,27.87
2019-01-27T04:15:24.083Z,25.40
2019-01-27T04:17:50.968Z,24.07
2019-01-27T04:20:19.870Z,28.47
2019-01-27T04:22:46.509Z,22.73
2019-01-27T04:25:13.972Z,25.73
2019-01-27T04:27:40.908Z,21.33
2019-01-27T04:30:11.284Z,22.20
2019-01-27T04:32:37.957Z,23.63
2019-01-27T04:35:07.690Z,22.73
2019-01-27T04:37:34.262Z,23.93
2019-01-27T04:40:00.772Z,25.10
2019-01-27T04:42:27.348Z,21.73
2019-01-27T04:44:53.968Z,22.37
2019-01-27T04:47:20.557Z,20.13
2019-01-27T04:49:46.981Z,21.07
2019-01-27T04:52:13.657Z,22.60
2019-01-27T04:54:40.226Z,20.43
2019-01-27T04:57:06.749Z,22.50
2019-01-27T04:59:33.280Z,20.30
2019-01-27T05:01:59.851Z,19.47
2019-01-27T05:04:28.379Z,19.40
2019-01-27T05:06:54.937Z,20.67
2019-01-27T05:09:21.553Z,22.23
2019-01-27T05:11:49.729Z,21.00
2019-01-27T05:14:16.248Z,19.40
2019-01-27T05:16:42.929Z,17.57
2019-01-27T05:19:09.547Z,18.53
2019-01-27T05:21:36.890Z,19.83
2019-01-27T05:24:03.726Z,17.87
2019-01-27T05:26:30.395Z,18.43
2019-01-27T05:28:58.615Z,17.17
2019-01-27T05:31:25.182Z,18.10
2019-01-27T05:33:51.704Z,17.80
2019-01-27T05:36:18.451Z,17.33
2019-01-27T05:38:44.968Z,17.33
2019-01-27T05:41:11.557Z,17.33
2019-01-27T05:43:38.144Z,15.07
2019-01-27T05:46:04.673Z,16.90
2019-01-27T05:48:31.308Z,18.07
2019-01-27T05:50:57.844Z,16.50
2019-01-27T05:53:24.508Z,17.73
2019-01-27T05:55:51.228Z,16.17
2019-01-27T05:58:17.789Z,18.00
2019-01-27T06:00:46.216Z,16.80
2019-01-27T06:03:12.969Z,14.63
2019-01-27T06:05:39.501Z,14.47
2019-01-27T06:08:06.153Z,14.80
2019-01-27T06:10:32.672Z,14.33
2019-01-27T06:12:59.427Z,17.23
2019-01-27T06:15:26.343Z,14.90
2019-01-27T06:17:52.999Z,16.57
2019-01-27T06:20:19.629Z,15.23
2019-01-27T06:22:46.352Z,15.03
2019-01-27T06:25:17.026Z,13.17
2019-01-27T06:27:43.760Z,15.10
2019-01-27T06:30:22.332Z,16.23
2019-01-27T06:32:51.089Z,13.30
2019-01-27T06:35:17.721Z,15.30
2019-01-27T06:37:44.358Z,15.10
2019-01-27T06:40:11.101Z,14.60
2019-01-27T06:42:37.688Z,15.87
2019-01-27T06:45:05.637Z,13.77
2019-01-27T06:47:32.265Z,14.97
2019-01-27T06:49:58.815Z,15.63
2019-01-27T06:52:25.458Z,13.33
2019-01-27T06:54:52.013Z,15.00
2019-01-27T06:57:19.838Z,14.27
2019-01-27T06:59:51.272Z,14.13
2019-01-27T07:02:20.603Z,19.90
2019-01-27T07:04:49.309Z,19.40
2019-01-27T07:07:21.112Z,17.67
2019-01-27T07:09:52.474Z,16.87
2019-01-27T07:12:26.368Z,23.07
2019-01-27T07:15:03.722Z,24.90
2019-01-27T07:17:35.061Z,18.37
2019-01-27T07:20:03.613Z,23.07
2019-01-27T07:22:32.055Z,16.80
2019-01-27T07:25:06.579Z,16.67
2019-01-27T07:27:44.059Z,17.23
2019-01-27T07:30:25.849Z,18.60
2019-01-27T07:32:55.281Z,14.93
2019-01-27T07:35:23.844Z,19.63
2019-01-27T07:37:58.175Z,16.50
2019-01-27T07:40:26.841Z,17.87
2019-01-27T07:43:01.456Z,15.13
2019-01-27T07:45:33.149Z,15.37
2019-01-27T07:48:07.409Z,17.00
2019-01-27T07:50:38.740Z,16.03
2019-01-27T07:53:13.983Z,14.70
2019-01-27T07:55:42.524Z,13.73
2019-01-27T07:58:19.901Z,15.10
2019-01-27T08:00:54.302Z,14.33
2019-01-27T08:03:29.161Z,14.90
2019-01-27T08:05:57.714Z,14.40
2019-01-27T08:08:26.337Z,13.30
2019-01-27T08:11:06.608Z,15.50
2019-01-27T08:13:35.044Z,13.70
2019-01-27T08:16:06.267Z,14.20
2019-01-27T08:18:52.935Z,13.33
2019-01-27T08:21:21.419Z,13.80
2019-01-27T08:23:52.457Z,12.10
2019-01-27T08:26:37.631Z,16.50
2019-01-27T08:29:06.051Z,14.07
2019-01-27T08:31:34.525Z,15.20
2019-01-27T08:34:19.573Z,13.70
2019-01-27T08:36:48.035Z,13.70
2019-01-27T08:39:25.579Z,12.33
2019-01-27T08:42:03.025Z,14.17
2019-01-27T08:44:40.409Z,14.20
2019-01-27T08:47:07.807Z,13.30
2019-01-27T08:49:34.709Z,11.80
2019-01-27T08:52:01.292Z,12.67
2019-01-27T08:54:30.459Z,12.43
2019-01-27T08:56:57.537Z,12.90
2019-01-27T08:59:25.061Z,12.80
2019-01-27T09:02:09.921Z,12.53
2019-01-27T09:04:38.730Z,13.00
2019-01-27T09:07:11.635Z,13.17
2019-01-27T09:09:41.890Z,12.27
2019-01-27T09:12:13.789Z,12.27
2019-01-27T09:14:43.448Z,11.43
2019-01-27T09:17:30.026Z,13.00
2019-01-27T09:19:59.244Z,12.87
2019-01-27T09:22:29.113Z,12.87
2019-01-27T09:25:01.746Z,13.33
2019-01-27T09:27:35.289Z,12.23
2019-01-27T09:30:08.097Z,11.40
2019-01-27T09:32:38.601Z,12.73
2019-01-27T09:35:09.696Z,12.60
2019-01-27T09:37:42.389Z,11.87
2019-01-27T09:40:13.866Z,12.10
2019-01-27T09:42:46.543Z,11.87
2019-01-27T09:45:24.872Z,11.73
2019-01-27T09:48:03.391Z,11.63
2019-01-27T09:50:33.048Z,10.90
2019-01-27T09:53:18.203Z,11.17
2019-01-27T09:55:57.052Z,9.83
2019-01-27T09:58:26.725Z,10.90
2019-01-27T10:01:02.084Z,10.40
2019-01-27T10:03:43.865Z,9.67
2019-01-27T10:06:22.352Z,9.90
2019-01-27T10:08:51.817Z,10.73
2019-01-27T10:11:26.514Z,10.80
2019-01-27T10:13:53.515Z,9.87
2019-01-27T10:16:38.152Z,10.50
2019-01-27T10:19:19.897Z,10.10
2019-01-27T10:21:49.907Z,9.13
2019-01-27T10:24:25.391Z,9.70
2019-01-27T10:27:04.231Z,9.27
2019-01-27T10:29:39.313Z,9.33
2019-01-27T10:32:14.946Z,9.30
2019-01-27T10:34:44.408Z,8.70
2019-01-27T10:37:16.699Z,9.17
2019-01-27T10:39:52.143Z,8.20
2019-01-27T10:42:27.587Z,9.00
2019-01-27T10:45:03.421Z,10.07
2019-01-27T10:47:46.866Z,9.30
2019-01-27T10:50:17.679Z,9.20
2019-01-27T10:52:48.365Z,9.30
2019-01-27T10:55:18.335Z,8.60
2019-01-27T10:57:50.680Z,8.90
2019-01-27T11:00:36.138Z,8.00
2019-01-27T11:03:06.807Z,8.40
2019-01-27T11:05:45.357Z,7.40
2019-01-27T11:08:14.985Z,8.03
2019-01-27T11:11:00.477Z,8.00
2019-01-27T11:13:30.434Z,7.23
2019-01-27T11:16:06.066Z,7.97
2019-01-27T11:18:35.804Z,7.87
2019-01-27T11:21:08.601Z,6.70
2019-01-27T11:23:40.962Z,7.97
2019-01-27T11:26:13.265Z,6.87
2019-01-27T11:28:52.037Z,7.53
2019-01-27T11:31:36.580Z,6.40
2019-01-27T11:34:06.872Z,7.27
2019-01-27T11:36:42.525Z,6.80
2019-01-27T11:39:18.277Z,8.13
2019-01-27T11:41:49.641Z,7.77
2019-01-27T11:44:19.323Z,7.77
2019-01-27T11:46:58.642Z,7.50
2019-01-27T11:49:28.437Z,7.00
2019-01-27T11:51:56.376Z,5.93
2019-01-27T11:54:24.822Z,7.17
2019-01-27T11:56:53.134Z,7.13
2019-01-27T11:59:20.865Z,7.40
2019-01-27T12:01:48.700Z,6.83
2019-01-27T12:04:16.895Z,6.77
2019-01-27T12:06:45.291Z,6.60
2019-01-27T12:09:13.291Z,6.33
2019-01-27T12:11:41.520Z,5.83
2019-01-27T12:14:09.521Z,6.63
2019-01-27T12:16:37.160Z,5.97
2019-01-27T12:19:05.213Z,6.30
2019-01-27T12:21:33.601Z,6.47
2019-01-27T12:24:01.669Z,6.10
2019-01-27T12:26:29.994Z,6.73
2019-01-27T12:28:57.825Z,6.10
2019-01-27T12:31:26.036Z,6.40
2019-01-27T12:33:54.378Z,6.30
2019-01-27T12:36:24.072Z,6.47
2019-01-27T12:38:52.400Z,6.20
2019-01-27T12:41:20.637Z,6.10
2019-01-27T12:43:48.393Z,5.73
2019-01-27T12:46:16.149Z,6.27
2019-01-27T12:48:44.176Z,5.27
2019-01-27T12:51:12.333Z,5.90
2019-01-27T12:53:40.071Z,6.40
2019-01-27T12:56:09.399Z,5.77
2019-01-27T12:58:37.844Z,5.40
2019-01-27T13:01:05.760Z,5.73
2019-01-27T13:03:34.098Z,6.07
2019-01-27T13:06:01.906Z,6.03
2019-01-27T13:08:30.345Z,6.50
2019-01-27T13:10:58.692Z,6.30
2019-01-27T13:13:27.002Z,7.67
2019-01-27T13:15:54.970Z,6.80
2019-01-27T13:18:23.367Z,6.60
2019-01-27T13:20:51.425Z,6.77
2019-01-27T13:23:19.937Z,6.30
2019-01-27T13:25:47.593Z,6.70
2019-01-27T13:28:16.045Z,6.77
2019-01-27T13:30:44.356Z,7.07
2019-01-27T13:33:12.724Z,7.10
2019-01-27T13:35:41.019Z,7.80
2019-01-27T13:38:09.256Z,6.70
2019-01-27T13:40:36.979Z,6.57
2019-01-27T13:43:05.199Z,7.00
2019-01-27T13:45:32.991Z,7.10
2019-01-27T13:48:01.337Z,6.10
2019-01-27T13:50:29.545Z,6.33
2019-01-27T13:52:58.132Z,5.97
2019-01-27T13:55:30.675Z,6.87
2019-01-27T13:57:58.456Z,6.50
2019-01-27T14:00:31.840Z,6.33
2019-01-27T14:03:00.356Z,6.80
2019-01-27T14:05:28.685Z,6.43
2019-01-27T14:07:56.672Z,7.93
2019-01-27T14:10:26.400Z,5.57
2019-01-27T14:12:54.225Z,5.50
2019-01-27T14:15:28.007Z,5.30
2019-01-27T14:17:56.349Z,5.47
2019-01-27T14:20:24.382Z,5.73
2019-01-27T14:22:52.746Z,5.70
2019-01-27T14:25:25.007Z,6.60
2019-01-27T14:27:53.109Z,4.70
2019-01-27T14:30:23.852Z,5.10
2019-01-27T14:32:51.608Z,5.40
2019-01-27T14:35:19.865Z,5.23
2019-01-27T14:37:47.771Z,5.93
2019-01-27T14:40:26.736Z,5.30
2019-01-27T14:42:54.679Z,5.33
2019-01-27T14:45:25.542Z,5.40
2019-01-27T14:47:53.983Z,4.60
2019-01-27T14:50:27.466Z,4.73
2019-01-27T14:52:55.861Z,5.03
2019-01-27T14:55:23.728Z,5.30
2019-01-27T14:57:51.797Z,5.63
2019-01-27T15:00:23.017Z,5.13
2019-01-27T15:02:51.491Z,5.33
2019-01-27T15:05:19.801Z,5.40
2019-01-27T15:07:49.701Z,4.70
2019-01-27T15:10:22.078Z,5.27
2019-01-27T15:12:50.448Z,5.03
2019-01-27T15:15:20.025Z,4.80
2019-01-27T15:17:48.333Z,5.23
2019-01-27T15:20:36.885Z,4.50
2019-01-27T15:23:05.742Z,5.00
2019-01-27T15:25:34.029Z,4.53
2019-01-27T15:28:02.460Z,4.80
2019-01-27T15:30:35.786Z,5.07
2019-01-27T15:33:05.443Z,5.10
2019-01-27T15:35:33.792Z,5.40
2019-01-27T15:38:02.409Z,5.33
2019-01-27T15:40:30.768Z,4.90
2019-01-27T15:42:59.378Z,5.73
2019-01-27T15:45:28.670Z,5.53
2019-01-27T15:47:56.740Z,5.60
2019-01-27T15:50:32.590Z,5.43
2019-01-27T15:53:00.381Z,5.00
2019-01-27T15:55:27.977Z,5.30
2019-01-27T15:57:55.664Z,5.77
2019-01-27T16:00:25.578Z,6.70
2019-01-27T16:02:53.436Z,5.00
2019-01-27T16:05:22.691Z,5.60
2019-01-27T16:07:50.997Z,5.20
2019-01-27T16:10:25.468Z,5.83
2019-01-27T16:12:55.760Z,6.07
2019-01-27T16:15:26.059Z,5.50
2019-01-27T16:17:53.944Z,6.33
2019-01-27T16:20:22.253Z,5.73
2019-01-27T16:23:04.223Z,6.10
2019-01-27T16:25:32.529Z,6.00
2019-01-27T16:28:00.960Z,5.70
2019-01-27T16:30:48.814Z,6.17
2019-01-27T16:33:19.289Z,5.43
2019-01-27T16:35:47.605Z,5.50
2019-01-27T16:38:15.924Z,5.60
2019-01-27T16:40:44.313Z,5.43
2019-01-27T16:43:12.636Z,5.57
2019-01-27T16:45:40.881Z,5.60
2019-01-27T16:48:09.201Z,5.50
2019-01-27T16:50:37.414Z,5.60
2019-01-27T16:53:05.376Z,5.80
2019-01-27T16:55:33.510Z,5.37
2019-01-27T16:58:01.286Z,5.70
2019-01-27T17:00:30.313Z,5.90
2019-01-27T17:02:58.376Z,6.90
2019-01-27T17:05:26.645Z,5.90
2019-01-27T17:07:54.756Z,6.10
2019-01-27T17:10:24.588Z,6.27
2019-01-27T17:12:52.919Z,5.73
2019-01-27T17:15:21.255Z,5.87
2019-01-27T17:17:49.473Z,6.23
2019-01-27T17:20:26.067Z,7.23
2019-01-27T17:22:54.380Z,6.33
2019-01-27T17:25:22.801Z,6.07
2019-01-27T17:27:51.141Z,6.57
2019-01-27T17:30:25.897Z,6.37
2019-01-27T17:32:54.499Z,6.70
2019-01-27T17:35:24.310Z,6.40
2019-01-27T17:37:52.738Z,7.03
2019-01-27T17:40:20.715Z,6.00
2019-01-27T17:42:49.233Z,5.77
2019-01-27T17:45:19.022Z,6.37
2019-01-27T17:47:47.600Z,5.90
2019-01-27T17:50:18.536Z,6.40
2019-01-27T17:52:47.508Z,5.23
2019-01-27T17:55:38.682Z,6.20
2019-01-27T17:58:19.743Z,5.90
2019-01-27T18:00:50.321Z,5.80
2019-01-27T18:03:37.331Z,5.20
2019-01-27T18:06:13.340Z,6.30
2019-01-27T18:08:46.651Z,5.40
2019-01-27T18:11:16.941Z,5.27
2019-01-27T18:13:45.914Z,6.20
2019-01-27T18:16:14.947Z,5.30
2019-01-27T18:18:43.433Z,5.63
2019-01-27T18:21:12.013Z,5.10
2019-01-27T18:23:40.453Z,5.57
2019-01-27T18:26:09.095Z,6.43
2019-01-27T18:28:37.777Z,5.73
2019-01-27T18:31:06.813Z,5.20
2019-01-27T18:33:35.947Z,5.50
2019-01-27T18:36:05.415Z,5.63
2019-01-27T18:38:34.450Z,4.80
2019-01-27T18:41:03.402Z,5.43
2019-01-27T18:43:32.037Z,4.77
2019-01-27T18:46:00.948Z,5.50
2019-01-27T18:48:29.939Z,4.90
2019-01-27T18:50:58.750Z,5.37
2019-01-27T18:53:46.999Z,4.30
2019-01-27T18:56:17.109Z,4.80
2019-01-27T18:58:53.132Z,4.70
2019-01-27T19:01:36.571Z,5.33
2019-01-27T19:04:07.245Z,4.60
2019-01-27T19:06:46.777Z,4.60
2019-01-27T19:09:34.535Z,5.00
2019-01-27T19:12:05.653Z,4.80
2019-01-27T19:14:48.467Z,5.70
2019-01-27T19:17:22.102Z,5.13
2019-01-27T19:20:02.213Z,7.43
2019-01-27T19:22:38.928Z,5.93
2019-01-27T19:25:13.005Z,5.43
2019-01-27T19:27:44.420Z,4.80
2019-01-27T19:30:22.479Z,5.80
2019-01-27T19:33:05.220Z,5.83
2019-01-27T19:35:45.400Z,5.57
2019-01-27T19:38:22.301Z,6.20
2019-01-27T19:40:59.264Z,6.10
2019-01-27T19:43:33.221Z,6.00
2019-01-27T19:46:16.213Z,6.97
2019-01-27T19:49:03.613Z,5.83
2019-01-27T19:51:37.252Z,6.07
2019-01-27T19:54:23.841Z,6.83
2019-01-27T19:57:10.056Z,6.97
2019-01-27T19:59:50.313Z,6.60
2019-01-27T20:02:20.658Z,6.90
2019-01-27T20:04:57.637Z,7.10
2019-01-27T20:07:34.624Z,6.73
2019-01-27T20:10:10.117Z,7.20
2019-01-27T20:12:43.631Z,7.43
2019-01-27T20:15:18.883Z,6.80
2019-01-27T20:17:49.923Z,7.77
2019-01-27T20:20:29.563Z,6.80
2019-01-27T20:23:00.386Z,7.87
2019-01-27T20:25:46.685Z,7.40
2019-01-27T20:28:20.711Z,7.43
2019-01-27T20:31:08.241Z,8.37
2019-01-27T20:33:55.623Z,8.47
2019-01-27T20:36:35.670Z,7.60
2019-01-27T20:39:11.365Z,9.70
2019-01-27T20:41:42.249Z,9.17
2019-01-27T20:44:15.413Z,8.53
2019-01-27T20:46:49.300Z,10.20
2019-01-27T20:49:20.036Z,9.93
2019-01-27T20:51:50.312Z,9.90
2019-01-27T20:54:20.809Z,9.53
2019-01-27T20:57:00.046Z,10.73
2019-01-27T20:59:30.853Z,10.40
2019-01-27T21:02:17.356Z,9.77
2019-01-27T21:04:56.582Z,10.27
2019-01-27T21:07:27.288Z,11.23
2019-01-27T21:10:12.809Z,11.90
2019-01-27T21:13:01.415Z,10.63
2019-01-27T21:15:44.304Z,12.03
2019-01-27T21:18:17.724Z,11.57
2019-01-27T21:20:46.495Z,11.67
2019-01-27T21:23:14.944Z,12.03
2019-01-27T21:25:43.443Z,12.80
2019-01-27T21:28:11.640Z,12.60
2019-01-27T21:30:39.977Z,11.83
2019-01-27T21:33:08.657Z,13.83
2019-01-27T21:35:36.767Z,13.43
2019-01-27T21:38:04.605Z,13.87
2019-01-27T21:40:32.492Z,12.87
2019-01-27T21:43:00.788Z,13.40
2019-01-27T21:45:28.549Z,13.60
2019-01-27T21:47:56.522Z,13.97
2019-01-27T21:50:24.285Z,14.83
2019-01-27T21:52:52.164Z,14.43
2019-01-27T21:55:19.712Z,14.63
2019-01-27T21:57:47.383Z,15.13
2019-01-27T22:00:19.997Z,15.83
2019-01-27T22:02:48.065Z,15.57
2019-01-27T22:05:16.038Z,16.13
2019-01-27T22:07:43.817Z,16.30
2019-01-27T22:10:13.205Z,16.50
2019-01-27T22:12:40.718Z,17.57
2019-01-27T22:15:08.950Z,18.80
2019-01-27T22:17:35.723Z,16.40
2019-01-27T22:20:05.915Z,16.87
2019-01-27T22:22:32.745Z,17.33
2019-01-27T22:24:59.392Z,18.63
2019-01-27T22:27:25.932Z,16.67
2019-01-27T22:29:52.647Z,17.83
2019-01-27T22:32:19.297Z,17.77
2019-01-27T22:34:45.929Z,18.10
2019-01-27T22:37:13.054Z,19.70
2019-01-27T22:39:39.664Z,18.33
2019-01-27T22:42:06.344Z,18.03
2019-01-27T22:44:32.924Z,19.50
2019-01-27T22:46:59.448Z,17.87
2019-01-27T22:49:26.081Z,18.60
2019-01-27T22:51:52.705Z,18.90
2019-01-27T22:54:19.288Z,18.90
2019-01-27T22:56:45.833Z,18.30
2019-01-27T22:59:12.489Z,21.60
2019-01-27T23:01:39.198Z,20.87
2019-01-27T23:04:05.868Z,21.10
2019-01-27T23:06:32.496Z,22.20
2019-01-27T23:08:59.165Z,20.70
2019-01-27T23:11:25.709Z,23.47
2019-01-27T23:13:53.880Z,22.87
2019-01-27T23:16:20.461Z,19.33
2019-01-27T23:18:47.026Z,19.17
2019-01-27T23:21:13.595Z,17.60
2019-01-27T23:23:40.204Z,17.33
2019-01-27T23:26:06.777Z,17.70
2019-01-27T23:28:33.381Z,16.90
2019-01-27T23:30:59.948Z,17.00
2019-01-27T23:33:26.631Z,19.77
2019-01-27T23:35:53.146Z,17.27
2019-01-27T23:38:19.816Z,18.93
2019-01-27T23:40:46.448Z,15.87
2019-01-27T23:43:13.120Z,16.60
2019-01-27T23:45:39.667Z,15.27
2019-01-27T23:48:06.229Z,20.47
2019-01-27T23:50:32.757Z,18.63
2019-01-27T23:52:59.327Z,17.47
2019-01-27T23:55:26.007Z,17.40
2019-01-27T23:57:52.593Z,16.30
